sensor_id;sensor_type;location;lat;lon;timestamp;P1;durP1;ratioP1;P2;durP2;ratioP2
22005;SDS011;11167;46.988;15.470;2023-06-05T00:01:23;1.07;;;0.93;;
22005;SDS011;11167;46.988;15.470;2023-06-05T00:03:24;1.20;;;0.80;;
22005;SDS011;11167;46.988;15.470;2023-06-05T00:05:27;1.10;;;1.00;;
22005;SDS011;11167;46.988;15.470;2023-06-05T00:07:30;0.98;;;0.90;;
22005;SDS011;11167;46.988;15.470;2023-06-05T00:09:31;1.02;;;0.98;;
22005;SDS011;11167;46.988;15.470;2023-06-05T00:11:32;1.10;;;1.00;;
22005;SDS011;11167;46.988;15.470;2023-06-05T00:13:33;1.87;;;1.12;;
22005;SDS011;11167;46.988;15.470;2023-06-05T00:15:34;1.15;;;0.85;;
22005;SDS011;11167;46.988;15.470;2023-06-05T00:19:57;2.83;;;1.00;;
22005;SDS011;11167;46.988;15.470;2023-06-05T00:22:00;0.95;;;0.95;;
22005;SDS011;11167;46.988;15.470;2023-06-05T00:24:02;1.27;;;0.90;;
22005;SDS011;11167;46.988;15.470;2023-06-05T00:26:03;1.50;;;1.07;;
22005;SDS011;11167;46.988;15.470;2023-06-05T00:28:04;1.10;;;1.00;;
22005;SDS011;11167;46.988;15.470;2023-06-05T00:30:06;1.12;;;1.02;;
22005;SDS011;11167;46.988;15.470;2023-06-05T00:32:11;1.45;;;1.05;;
22005;SDS011;11167;46.988;15.470;2023-06-05T00:34:12;1.17;;;1.00;;
22005;SDS011;11167;46.988;15.470;2023-06-05T00:36:14;1.57;;;0.85;;
22005;SDS011;11167;46.988;15.470;2023-06-05T00:38:15;0.72;;;0.65;;
22005;SDS011;11167;46.988;15.470;2023-06-05T00:40:16;1.35;;;0.90;;
22005;SDS011;11167;46.988;15.470;2023-06-05T00:42:17;2.45;;;1.07;;
22005;SDS011;11167;46.988;15.470;2023-06-05T00:44:18;1.27;;;0.98;;
22005;SDS011;11167;46.988;15.470;2023-06-05T00:46:20;1.22;;;1.10;;
22005;SDS011;11167;46.988;15.470;2023-06-05T00:48:21;2.62;;;1.10;;
22005;SDS011;11167;46.988;15.470;2023-06-05T00:50:22;1.10;;;1.00;;
22005;SDS011;11167;46.988;15.470;2023-06-05T00:52:23;0.90;;;0.80;;
22005;SDS011;11167;46.988;15.470;2023-06-05T00:54:26;1.07;;;0.98;;
22005;SDS011;11167;46.988;15.470;2023-06-05T00:56:28;1.22;;;1.00;;
22005;SDS011;11167;46.988;15.470;2023-06-05T00:58:29;1.00;;;0.90;;
22005;SDS011;11167;46.988;15.470;2023-06-05T01:00:32;1.00;;;1.00;;
22005;SDS011;11167;46.988;15.470;2023-06-05T01:02:35;1.07;;;0.98;;
22005;SDS011;11167;46.988;15.470;2023-06-05T01:04:39;0.98;;;0.90;;
22005;SDS011;11167;46.988;15.470;2023-06-05T01:06:47;2.58;;;1.17;;
22005;SDS011;11167;46.988;15.470;2023-06-05T01:08:49;2.05;;;1.00;;
22005;SDS011;11167;46.988;15.470;2023-06-05T01:10:51;1.10;;;1.00;;
22005;SDS011;11167;46.988;15.470;2023-06-05T01:15:14;1.20;;;1.00;;
22005;SDS011;11167;46.988;15.470;2023-06-05T01:17:18;1.17;;;1.07;;
22005;SDS011;11167;46.988;15.470;2023-06-05T01:19:21;1.30;;;1.20;;
22005;SDS011;11167;46.988;15.470;2023-06-05T01:21:24;0.93;;;0.90;;
22005;SDS011;11167;46.988;15.470;2023-06-05T01:23:27;1.35;;;1.20;;
22005;SDS011;11167;46.988;15.470;2023-06-05T01:25:29;1.15;;;1.05;;
22005;SDS011;11167;46.988;15.470;2023-06-05T01:27:37;1.45;;;1.32;;
22005;SDS011;11167;46.988;15.470;2023-06-05T01:29:53;1.20;;;1.10;;
22005;SDS011;11167;46.988;15.470;2023-06-05T01:31:59;1.35;;;1.15;;
22005;SDS011;11167;46.988;15.470;2023-06-05T01:34:07;1.47;;;1.12;;
22005;SDS011;11167;46.988;15.470;2023-06-05T01:36:12;1.42;;;0.90;;
22005;SDS011;11167;46.988;15.470;2023-06-05T01:38:15;3.33;;;1.23;;
22005;SDS011;11167;46.988;15.470;2023-06-05T01:40:17;1.57;;;1.22;;
22005;SDS011;11167;46.988;15.470;2023-06-05T01:42:23;1.95;;;1.30;;
22005;SDS011;11167;46.988;15.470;2023-06-05T01:44:26;1.43;;;1.30;;
22005;SDS011;11167;46.988;15.470;2023-06-05T01:46:28;1.40;;;1.30;;
22005;SDS011;11167;46.988;15.470;2023-06-05T01:48:30;1.82;;;1.35;;
22005;SDS011;11167;46.988;15.470;2023-06-05T01:50:33;2.12;;;1.62;;
22005;SDS011;11167;46.988;15.470;2023-06-05T01:52:36;1.55;;;1.30;;
22005;SDS011;11167;46.988;15.470;2023-06-05T01:54:39;1.57;;;1.40;;
22005;SDS011;11167;46.988;15.470;2023-06-05T01:56:42;1.20;;;1.10;;
22005;SDS011;11167;46.988;15.470;2023-06-05T01:58:44;1.35;;;1.25;;
22005;SDS011;11167;46.988;15.470;2023-06-05T02:00:46;2.42;;;1.37;;
22005;SDS011;11167;46.988;15.470;2023-06-05T02:02:48;1.40;;;1.20;;
22005;SDS011;11167;46.988;15.470;2023-06-05T02:04:50;2.62;;;1.30;;
22005;SDS011;11167;46.988;15.470;2023-06-05T02:06:53;1.87;;;1.40;;
22005;SDS011;11167;46.988;15.470;2023-06-05T02:08:54;1.87;;;1.25;;
22005;SDS011;11167;46.988;15.470;2023-06-05T02:10:57;1.17;;;1.02;;
22005;SDS011;11167;46.988;15.470;2023-06-05T02:13:00;1.40;;;1.20;;
22005;SDS011;11167;46.988;15.470;2023-06-05T02:15:01;2.22;;;1.50;;
22005;SDS011;11167;46.988;15.470;2023-06-05T02:17:03;1.98;;;1.35;;
22005;SDS011;11167;46.988;15.470;2023-06-05T02:19:07;1.42;;;1.02;;
22005;SDS011;11167;46.988;15.470;2023-06-05T02:21:09;1.72;;;1.30;;
22005;SDS011;11167;46.988;15.470;2023-06-05T02:23:10;3.08;;;1.17;;
22005;SDS011;11167;46.988;15.470;2023-06-05T02:25:11;1.92;;;1.30;;
22005;SDS011;11167;46.988;15.470;2023-06-05T02:27:12;1.98;;;1.20;;
22005;SDS011;11167;46.988;15.470;2023-06-05T02:29:14;1.40;;;1.30;;
22005;SDS011;11167;46.988;15.470;2023-06-05T02:31:15;1.30;;;1.20;;
22005;SDS011;11167;46.988;15.470;2023-06-05T02:33:16;1.22;;;1.10;;
22005;SDS011;11167;46.988;15.470;2023-06-05T02:35:17;1.37;;;1.20;;
22005;SDS011;11167;46.988;15.470;2023-06-05T02:37:18;1.10;;;1.00;;
22005;SDS011;11167;46.988;15.470;2023-06-05T02:39:22;1.30;;;1.20;;
22005;SDS011;11167;46.988;15.470;2023-06-05T02:41:23;1.95;;;1.17;;
22005;SDS011;11167;46.988;15.470;2023-06-05T02:43:25;1.98;;;1.30;;
22005;SDS011;11167;46.988;15.470;2023-06-05T02:45:26;1.52;;;1.42;;
22005;SDS011;11167;46.988;15.470;2023-06-05T02:47:27;1.50;;;1.40;;
22005;SDS011;11167;46.988;15.470;2023-06-05T02:49:28;1.20;;;1.10;;
22005;SDS011;11167;46.988;15.470;2023-06-05T02:51:30;1.25;;;1.12;;
22005;SDS011;11167;46.988;15.470;2023-06-05T02:53:31;1.62;;;1.30;;
22005;SDS011;11167;46.988;15.470;2023-06-05T02:55:33;1.30;;;1.20;;
22005;SDS011;11167;46.988;15.470;2023-06-05T02:57:34;1.37;;;1.27;;
22005;SDS011;11167;46.988;15.470;2023-06-05T02:59:41;1.27;;;1.17;;
22005;SDS011;11167;46.988;15.470;2023-06-05T03:01:42;2.65;;;1.40;;
22005;SDS011;11167;46.988;15.470;2023-06-05T03:03:45;1.80;;;1.30;;
22005;SDS011;11167;46.988;15.470;2023-06-05T03:05:48;1.47;;;1.37;;
22005;SDS011;11167;46.988;15.470;2023-06-05T03:07:50;1.92;;;1.67;;
22005;SDS011;11167;46.988;15.470;2023-06-05T03:09:55;2.05;;;1.42;;
22005;SDS011;11167;46.988;15.470;2023-06-05T03:11:57;2.30;;;1.57;;
22005;SDS011;11167;46.988;15.470;2023-06-05T03:13:59;1.80;;;1.17;;
22005;SDS011;11167;46.988;15.470;2023-06-05T03:16:00;1.40;;;1.30;;
22005;SDS011;11167;46.988;15.470;2023-06-05T03:18:01;1.57;;;1.47;;
22005;SDS011;11167;46.988;15.470;2023-06-05T03:20:03;1.95;;;1.47;;
22005;SDS011;11167;46.988;15.470;2023-06-05T03:22:05;1.82;;;1.57;;
22005;SDS011;11167;46.988;15.470;2023-06-05T03:24:06;1.82;;;1.40;;
22005;SDS011;11167;46.988;15.470;2023-06-05T03:26:09;1.47;;;1.30;;
22005;SDS011;11167;46.988;15.470;2023-06-05T03:28:10;1.60;;;1.40;;
22005;SDS011;11167;46.988;15.470;2023-06-05T03:30:11;3.17;;;1.72;;
22005;SDS011;11167;46.988;15.470;2023-06-05T03:32:14;2.08;;;1.62;;
22005;SDS011;11167;46.988;15.470;2023-06-05T03:34:15;1.70;;;1.57;;
22005;SDS011;11167;46.988;15.470;2023-06-05T03:36:17;1.90;;;1.70;;
22005;SDS011;11167;46.988;15.470;2023-06-05T03:38:19;2.62;;;1.60;;
22005;SDS011;11167;46.988;15.470;2023-06-05T03:40:20;2.15;;;1.40;;
22005;SDS011;11167;46.988;15.470;2023-06-05T03:42:21;1.75;;;1.30;;
22005;SDS011;11167;46.988;15.470;2023-06-05T03:44:22;2.45;;;1.70;;
22005;SDS011;11167;46.988;15.470;2023-06-05T03:46:23;1.60;;;1.40;;
22005;SDS011;11167;46.988;15.470;2023-06-05T03:48:24;1.52;;;1.30;;
22005;SDS011;11167;46.988;15.470;2023-06-05T03:50:26;1.70;;;1.60;;
22005;SDS011;11167;46.988;15.470;2023-06-05T03:52:29;1.40;;;1.30;;
22005;SDS011;11167;46.988;15.470;2023-06-05T03:54:30;2.65;;;1.60;;
22005;SDS011;11167;46.988;15.470;2023-06-05T03:56:34;2.27;;;1.40;;
22005;SDS011;11167;46.988;15.470;2023-06-05T03:58:35;1.60;;;1.50;;
22005;SDS011;11167;46.988;15.470;2023-06-05T04:00:36;1.47;;;1.37;;
22005;SDS011;11167;46.988;15.470;2023-06-05T04:02:38;1.82;;;1.60;;
22005;SDS011;11167;46.988;15.470;2023-06-05T04:04:39;2.08;;;1.50;;
22005;SDS011;11167;46.988;15.470;2023-06-05T04:06:40;1.60;;;1.50;;
22005;SDS011;11167;46.988;15.470;2023-06-05T04:08:41;1.98;;;1.60;;
22005;SDS011;11167;46.988;15.470;2023-06-05T04:10:42;1.77;;;1.60;;
22005;SDS011;11167;46.988;15.470;2023-06-05T04:12:44;2.37;;;1.72;;
22005;SDS011;11167;46.988;15.470;2023-06-05T04:14:45;1.87;;;1.65;;
22005;SDS011;11167;46.988;15.470;2023-06-05T04:16:46;2.33;;;1.60;;
22005;SDS011;11167;46.988;15.470;2023-06-05T04:18:47;1.55;;;1.45;;
22005;SDS011;11167;46.988;15.470;2023-06-05T04:20:49;1.62;;;1.52;;
22005;SDS011;11167;46.988;15.470;2023-06-05T04:22:50;2.87;;;1.70;;
22005;SDS011;11167;46.988;15.470;2023-06-05T04:24:52;1.72;;;1.50;;
22005;SDS011;11167;46.988;15.470;2023-06-05T04:26:53;1.80;;;1.30;;
22005;SDS011;11167;46.988;15.470;2023-06-05T04:28:55;3.05;;;1.65;;
22005;SDS011;11167;46.988;15.470;2023-06-05T04:30:56;1.98;;;1.65;;
22005;SDS011;11167;46.988;15.470;2023-06-05T04:32:57;2.98;;;1.90;;
22005;SDS011;11167;46.988;15.470;2023-06-05T04:34:58;2.10;;;1.82;;
22005;SDS011;11167;46.988;15.470;2023-06-05T04:37:00;2.33;;;1.67;;
22005;SDS011;11167;46.988;15.470;2023-06-05T04:39:02;2.10;;;1.77;;
22005;SDS011;11167;46.988;15.470;2023-06-05T04:41:12;2.20;;;1.70;;
22005;SDS011;11167;46.988;15.470;2023-06-05T04:43:12;3.15;;;1.70;;
22005;SDS011;11167;46.988;15.470;2023-06-05T04:45:14;2.67;;;2.00;;
22005;SDS011;11167;46.988;15.470;2023-06-05T04:47:16;3.33;;;2.12;;
22005;SDS011;11167;46.988;15.470;2023-06-05T04:49:18;2.27;;;1.82;;
22005;SDS011;11167;46.988;15.470;2023-06-05T04:51:19;2.08;;;1.70;;
22005;SDS011;11167;46.988;15.470;2023-06-05T04:53:20;3.08;;;1.90;;
22005;SDS011;11167;46.988;15.470;2023-06-05T04:55:22;1.85;;;1.70;;
22005;SDS011;11167;46.988;15.470;2023-06-05T04:57:23;1.70;;;1.60;;
22005;SDS011;11167;46.988;15.470;2023-06-05T04:59:27;2.42;;;1.98;;
22005;SDS011;11167;46.988;15.470;2023-06-05T05:01:28;1.82;;;1.72;;
22005;SDS011;11167;46.988;15.470;2023-06-05T05:03:29;2.42;;;1.90;;
22005;SDS011;11167;46.988;15.470;2023-06-05T05:05:30;1.90;;;1.65;;
22005;SDS011;11167;46.988;15.470;2023-06-05T05:07:31;2.20;;;2.00;;
22005;SDS011;11167;46.988;15.470;2023-06-05T05:09:33;2.20;;;1.77;;
22005;SDS011;11167;46.988;15.470;2023-06-05T05:11:34;2.92;;;2.00;;
22005;SDS011;11167;46.988;15.470;2023-06-05T05:13:35;2.22;;;1.90;;
22005;SDS011;11167;46.988;15.470;2023-06-05T05:15:36;2.15;;;1.72;;
22005;SDS011;11167;46.988;15.470;2023-06-05T05:17:37;2.42;;;1.95;;
22005;SDS011;11167;46.988;15.470;2023-06-05T05:19:38;2.40;;;2.08;;
22005;SDS011;11167;46.988;15.470;2023-06-05T05:21:41;2.47;;;1.95;;
22005;SDS011;11167;46.988;15.470;2023-06-05T05:23:42;2.85;;;2.10;;
22005;SDS011;11167;46.988;15.470;2023-06-05T05:25:43;2.00;;;1.80;;
22005;SDS011;11167;46.988;15.470;2023-06-05T05:27:44;2.95;;;2.20;;
22005;SDS011;11167;46.988;15.470;2023-06-05T05:29:45;1.98;;;1.80;;
22005;SDS011;11167;46.988;15.470;2023-06-05T05:31:46;2.85;;;2.02;;
22005;SDS011;11167;46.988;15.470;2023-06-05T05:33:47;2.30;;;2.10;;
22005;SDS011;11167;46.988;15.470;2023-06-05T05:35:48;2.50;;;2.30;;
22005;SDS011;11167;46.988;15.470;2023-06-05T05:37:50;2.45;;;2.25;;
22005;SDS011;11167;46.988;15.470;2023-06-05T05:39:52;2.70;;;2.00;;
22005;SDS011;11167;46.988;15.470;2023-06-05T05:41:53;2.47;;;2.27;;
22005;SDS011;11167;46.988;15.470;2023-06-05T05:43:54;2.27;;;2.05;;
22005;SDS011;11167;46.988;15.470;2023-06-05T05:45:55;2.60;;;2.10;;
22005;SDS011;11167;46.988;15.470;2023-06-05T05:47:57;2.40;;;2.20;;
22005;SDS011;11167;46.988;15.470;2023-06-05T05:49:58;2.20;;;2.00;;
22005;SDS011;11167;46.988;15.470;2023-06-05T05:51:59;2.35;;;2.15;;
22005;SDS011;11167;46.988;15.470;2023-06-05T05:54:00;2.55;;;2.20;;
22005;SDS011;11167;46.988;15.470;2023-06-05T05:56:01;3.08;;;2.37;;
22005;SDS011;11167;46.988;15.470;2023-06-05T05:58:04;2.65;;;2.20;;
22005;SDS011;11167;46.988;15.470;2023-06-05T06:00:06;3.08;;;2.20;;
22005;SDS011;11167;46.988;15.470;2023-06-05T06:02:09;3.37;;;2.42;;
22005;SDS011;11167;46.988;15.470;2023-06-05T06:04:10;2.35;;;2.15;;
22005;SDS011;11167;46.988;15.470;2023-06-05T06:06:11;2.90;;;2.25;;
22005;SDS011;11167;46.988;15.470;2023-06-05T06:08:13;3.12;;;2.50;;
22005;SDS011;11167;46.988;15.470;2023-06-05T06:10:14;2.58;;;2.37;;
22005;SDS011;11167;46.988;15.470;2023-06-05T06:12:16;2.42;;;2.20;;
22005;SDS011;11167;46.988;15.470;2023-06-05T06:14:17;2.77;;;2.27;;
22005;SDS011;11167;46.988;15.470;2023-06-05T06:16:18;3.10;;;2.60;;
22005;SDS011;11167;46.988;15.470;2023-06-05T06:18:19;2.37;;;2.10;;
22005;SDS011;11167;46.988;15.470;2023-06-05T06:20:20;2.85;;;2.60;;
22005;SDS011;11167;46.988;15.470;2023-06-05T06:22:22;3.75;;;2.40;;
22005;SDS011;11167;46.988;15.470;2023-06-05T06:24:24;2.40;;;2.20;;
22005;SDS011;11167;46.988;15.470;2023-06-05T06:26:25;3.30;;;2.40;;
22005;SDS011;11167;46.988;15.470;2023-06-05T06:28:27;2.25;;;2.05;;
22005;SDS011;11167;46.988;15.470;2023-06-05T06:30:28;2.50;;;2.30;;
22005;SDS011;11167;46.988;15.470;2023-06-05T06:32:29;3.37;;;2.70;;
22005;SDS011;11167;46.988;15.470;2023-06-05T06:34:30;2.42;;;2.05;;
22005;SDS011;11167;46.988;15.470;2023-06-05T06:36:33;2.47;;;2.23;;
22005;SDS011;11167;46.988;15.470;2023-06-05T06:38:35;3.00;;;2.70;;
22005;SDS011;11167;46.988;15.470;2023-06-05T06:42:57;2.92;;;2.40;;
22005;SDS011;11167;46.988;15.470;2023-06-05T06:44:58;2.40;;;2.20;;
22005;SDS011;11167;46.988;15.470;2023-06-05T06:47:00;2.65;;;2.27;;
22005;SDS011;11167;46.988;15.470;2023-06-05T06:49:02;2.75;;;2.30;;
22005;SDS011;11167;46.988;15.470;2023-06-05T06:51:03;2.52;;;2.33;;
22005;SDS011;11167;46.988;15.470;2023-06-05T06:53:04;2.52;;;2.25;;
22005;SDS011;11167;46.988;15.470;2023-06-05T06:55:05;2.58;;;2.27;;
22005;SDS011;11167;46.988;15.470;2023-06-05T06:57:07;2.72;;;2.40;;
22005;SDS011;11167;46.988;15.470;2023-06-05T06:59:12;2.70;;;2.33;;
22005;SDS011;11167;46.988;15.470;2023-06-05T07:01:14;2.33;;;2.12;;
22005;SDS011;11167;46.988;15.470;2023-06-05T07:03:15;2.33;;;2.10;;
22005;SDS011;11167;46.988;15.470;2023-06-05T07:05:16;5.10;;;2.30;;
22005;SDS011;11167;46.988;15.470;2023-06-05T07:07:21;2.27;;;2.08;;
22005;SDS011;11167;46.988;15.470;2023-06-05T07:09:22;2.70;;;2.33;;
22005;SDS011;11167;46.988;15.470;2023-06-05T07:11:23;2.42;;;2.22;;
22005;SDS011;11167;46.988;15.470;2023-06-05T07:13:24;2.40;;;2.20;;
22005;SDS011;11167;46.988;15.470;2023-06-05T07:15:25;2.20;;;1.95;;
22005;SDS011;11167;46.988;15.470;2023-06-05T07:17:26;2.27;;;2.08;;
22005;SDS011;11167;46.988;15.470;2023-06-05T07:19:34;2.30;;;1.90;;
22005;SDS011;11167;46.988;15.470;2023-06-05T07:21:34;2.12;;;1.92;;
22005;SDS011;11167;46.988;15.470;2023-06-05T07:25:39;2.40;;;2.20;;
22005;SDS011;11167;46.988;15.470;2023-06-05T07:30:01;2.17;;;1.98;;
22005;SDS011;11167;46.988;15.470;2023-06-05T07:32:03;2.87;;;2.30;;
22005;SDS011;11167;46.988;15.470;2023-06-05T07:34:06;2.08;;;1.87;;
22005;SDS011;11167;46.988;15.470;2023-06-05T07:36:07;2.77;;;2.27;;
22005;SDS011;11167;46.988;15.470;2023-06-05T07:38:10;2.33;;;2.10;;
22005;SDS011;11167;46.988;15.470;2023-06-05T07:40:12;3.33;;;2.10;;
22005;SDS011;11167;46.988;15.470;2023-06-05T07:42:14;2.40;;;2.20;;
22005;SDS011;11167;46.988;15.470;2023-06-05T07:44:17;2.72;;;2.30;;
22005;SDS011;11167;46.988;15.470;2023-06-05T07:46:20;2.53;;;2.13;;
22005;SDS011;11167;46.988;15.470;2023-06-05T07:48:21;2.50;;;2.30;;
22005;SDS011;11167;46.988;15.470;2023-06-05T07:50:23;2.50;;;2.30;;
22005;SDS011;11167;46.988;15.470;2023-06-05T07:52:24;2.40;;;2.20;;
22005;SDS011;11167;46.988;15.470;2023-06-05T07:54:26;2.62;;;2.17;;
22005;SDS011;11167;46.988;15.470;2023-06-05T07:56:27;2.83;;;2.22;;
22005;SDS011;11167;46.988;15.470;2023-06-05T07:58:28;2.55;;;2.05;;
22005;SDS011;11167;46.988;15.470;2023-06-05T08:00:29;3.22;;;2.33;;
22005;SDS011;11167;46.988;15.470;2023-06-05T08:02:31;2.40;;;1.90;;
22005;SDS011;11167;46.988;15.470;2023-06-05T08:04:32;2.25;;;2.05;;
22005;SDS011;11167;46.988;15.470;2023-06-05T08:06:34;3.47;;;2.50;;
22005;SDS011;11167;46.988;15.470;2023-06-05T08:08:37;2.37;;;2.08;;
22005;SDS011;11167;46.988;15.470;2023-06-05T08:10:38;2.60;;;2.20;;
22005;SDS011;11167;46.988;15.470;2023-06-05T08:12:40;3.35;;;2.35;;
22005;SDS011;11167;46.988;15.470;2023-06-05T08:14:41;3.52;;;2.47;;
22005;SDS011;11167;46.988;15.470;2023-06-05T08:16:42;2.62;;;2.40;;
22005;SDS011;11167;46.988;15.470;2023-06-05T08:18:45;2.72;;;2.10;;
22005;SDS011;11167;46.988;15.470;2023-06-05T08:20:47;3.67;;;2.40;;
22005;SDS011;11167;46.988;15.470;2023-06-05T08:22:49;2.50;;;2.30;;
22005;SDS011;11167;46.988;15.470;2023-06-05T08:24:50;3.37;;;2.60;;
22005;SDS011;11167;46.988;15.470;2023-06-05T08:26:53;3.30;;;2.58;;
22005;SDS011;11167;46.988;15.470;2023-06-05T08:28:54;2.27;;;2.08;;
22005;SDS011;11167;46.988;15.470;2023-06-05T08:30:55;5.05;;;2.60;;
22005;SDS011;11167;46.988;15.470;2023-06-05T08:32:57;4.40;;;2.60;;
22005;SDS011;11167;46.988;15.470;2023-06-05T08:34:58;3.92;;;2.60;;
22005;SDS011;11167;46.988;15.470;2023-06-05T08:36:59;4.80;;;2.20;;
22005;SDS011;11167;46.988;15.470;2023-06-05T08:39:01;4.05;;;2.37;;
22005;SDS011;11167;46.988;15.470;2023-06-05T08:41:03;4.37;;;2.85;;
22005;SDS011;11167;46.988;15.470;2023-06-05T08:43:07;6.17;;;3.10;;
22005;SDS011;11167;46.988;15.470;2023-06-05T08:45:08;4.03;;;2.70;;
22005;SDS011;11167;46.988;15.470;2023-06-05T08:47:10;4.67;;;2.70;;
22005;SDS011;11167;46.988;15.470;2023-06-05T08:49:13;5.45;;;3.00;;
22005;SDS011;11167;46.988;15.470;2023-06-05T08:51:18;4.90;;;3.20;;
22005;SDS011;11167;46.988;15.470;2023-06-05T08:53:20;6.75;;;3.30;;
22005;SDS011;11167;46.988;15.470;2023-06-05T08:55:22;4.85;;;3.37;;
22005;SDS011;11167;46.988;15.470;2023-06-05T08:57:31;5.67;;;3.30;;
22005;SDS011;11167;46.988;15.470;2023-06-05T08:59:33;5.62;;;3.10;;
22005;SDS011;11167;46.988;15.470;2023-06-05T09:01:34;4.62;;;2.70;;
22005;SDS011;11167;46.988;15.470;2023-06-05T09:03:37;4.50;;;2.70;;
22005;SDS011;11167;46.988;15.470;2023-06-05T09:05:38;4.12;;;3.00;;
22005;SDS011;11167;46.988;15.470;2023-06-05T09:07:39;4.20;;;2.67;;
22005;SDS011;11167;46.988;15.470;2023-06-05T09:09:42;4.25;;;2.80;;
22005;SDS011;11167;46.988;15.470;2023-06-05T09:11:43;5.00;;;2.72;;
22005;SDS011;11167;46.988;15.470;2023-06-05T09:13:45;4.35;;;2.95;;
22005;SDS011;11167;46.988;15.470;2023-06-05T09:15:49;3.67;;;2.62;;
22005;SDS011;11167;46.988;15.470;2023-06-05T09:20:22;4.72;;;3.02;;
22005;SDS011;11167;46.988;15.470;2023-06-05T09:22:45;3.77;;;2.65;;
22005;SDS011;11167;46.988;15.470;2023-06-05T09:24:36;3.85;;;2.72;;
22005;SDS011;11167;46.988;15.470;2023-06-05T09:26:57;4.40;;;3.08;;
22005;SDS011;11167;46.988;15.470;2023-06-05T09:29:00;4.45;;;2.95;;
22005;SDS011;11167;46.988;15.470;2023-06-05T09:31:03;4.60;;;2.90;;
22005;SDS011;11167;46.988;15.470;2023-06-05T09:33:10;4.03;;;2.80;;
22005;SDS011;11167;46.988;15.470;2023-06-05T09:35:15;5.70;;;3.00;;
22005;SDS011;11167;46.988;15.470;2023-06-05T09:37:16;3.60;;;2.70;;
22005;SDS011;11167;46.988;15.470;2023-06-05T09:39:18;3.90;;;2.85;;
22005;SDS011;11167;46.988;15.470;2023-06-05T09:41:22;4.12;;;2.92;;
22005;SDS011;11167;46.988;15.470;2023-06-05T09:43:24;4.28;;;2.95;;
22005;SDS011;11167;46.988;15.470;2023-06-05T09:45:40;3.95;;;2.65;;
22005;SDS011;11167;46.988;15.470;2023-06-05T09:47:30;2.92;;;2.62;;
22005;SDS011;11167;46.988;15.470;2023-06-05T09:49:32;3.22;;;2.33;;
22005;SDS011;11167;46.988;15.470;2023-06-05T09:51:35;2.90;;;2.47;;
22005;SDS011;11167;46.988;15.470;2023-06-05T09:53:40;3.57;;;2.70;;
22005;SDS011;11167;46.988;15.470;2023-06-05T09:55:47;2.92;;;2.40;;
22005;SDS011;11167;46.988;15.470;2023-06-05T09:57:48;3.25;;;2.35;;
22005;SDS011;11167;46.988;15.470;2023-06-05T09:59:52;2.87;;;2.25;;
22005;SDS011;11167;46.988;15.470;2023-06-05T10:01:54;3.15;;;2.70;;
22005;SDS011;11167;46.988;15.470;2023-06-05T10:03:58;3.90;;;2.70;;
22005;SDS011;11167;46.988;15.470;2023-06-05T10:06:10;3.40;;;1.92;;
22005;SDS011;11167;46.988;15.470;2023-06-05T10:08:12;3.37;;;2.27;;
22005;SDS011;11167;46.988;15.470;2023-06-05T10:10:14;3.22;;;2.25;;
22005;SDS011;11167;46.988;15.470;2023-06-05T10:12:16;3.25;;;2.22;;
22005;SDS011;11167;46.988;15.470;2023-06-05T10:14:18;3.95;;;2.50;;
22005;SDS011;11167;46.988;15.470;2023-06-05T10:16:20;3.30;;;2.20;;
22005;SDS011;11167;46.988;15.470;2023-06-05T10:18:22;2.75;;;2.47;;
22005;SDS011;11167;46.988;15.470;2023-06-05T10:20:23;3.80;;;2.37;;
22005;SDS011;11167;46.988;15.470;2023-06-05T10:22:25;3.83;;;2.75;;
22005;SDS011;11167;46.988;15.470;2023-06-05T10:24:39;2.60;;;2.30;;
22005;SDS011;11167;46.988;15.470;2023-06-05T10:32:01;4.03;;;2.47;;
22005;SDS011;11167;46.988;15.470;2023-06-05T10:38:56;2.83;;;2.30;;
22005;SDS011;11167;46.988;15.470;2023-06-05T10:41:01;2.83;;;2.50;;
22005;SDS011;11167;46.988;15.470;2023-06-05T10:45:30;2.72;;;2.00;;
22005;SDS011;11167;46.988;15.470;2023-06-05T10:49:37;2.27;;;1.87;;
22005;SDS011;11167;46.988;15.470;2023-06-05T10:51:45;2.35;;;1.90;;
22005;SDS011;11167;46.988;15.470;2023-06-05T10:53:46;2.12;;;1.72;;
22005;SDS011;11167;46.988;15.470;2023-06-05T10:55:47;2.33;;;2.00;;
22005;SDS011;11167;46.988;15.470;2023-06-05T11:00:07;2.27;;;1.60;;
22005;SDS011;11167;46.988;15.470;2023-06-05T11:07:13;2.00;;;1.70;;
22005;SDS011;11167;46.988;15.470;2023-06-05T11:09:29;1.98;;;1.80;;
22005;SDS011;11167;46.988;15.470;2023-06-05T11:11:30;2.75;;;1.90;;
22005;SDS011;11167;46.988;15.470;2023-06-05T11:15:59;1.70;;;1.60;;
22005;SDS011;11167;46.988;15.470;2023-06-05T11:22:28;1.85;;;1.50;;
22005;SDS011;11167;46.988;15.470;2023-06-05T11:24:30;1.80;;;1.50;;
22005;SDS011;11167;46.988;15.470;2023-06-05T11:26:38;1.65;;;1.52;;
22005;SDS011;11167;46.988;15.470;2023-06-05T11:28:42;1.60;;;1.50;;
22005;SDS011;11167;46.988;15.470;2023-06-05T11:30:45;1.50;;;1.40;;
22005;SDS011;11167;46.988;15.470;2023-06-05T11:32:46;1.65;;;1.45;;
22005;SDS011;11167;46.988;15.470;2023-06-05T11:34:48;3.10;;;1.60;;
22005;SDS011;11167;46.988;15.470;2023-06-05T11:36:51;1.60;;;1.40;;
22005;SDS011;11167;46.988;15.470;2023-06-05T11:38:52;1.40;;;1.30;;
22005;SDS011;11167;46.988;15.470;2023-06-05T11:40:55;1.63;;;1.47;;
22005;SDS011;11167;46.988;15.470;2023-06-05T11:43:01;1.32;;;1.22;;
22005;SDS011;11167;46.988;15.470;2023-06-05T11:45:11;1.72;;;1.62;;
22005;SDS011;11167;46.988;15.470;2023-06-05T11:47:22;1.72;;;1.60;;
22005;SDS011;11167;46.988;15.470;2023-06-05T11:49:25;2.12;;;1.52;;
22005;SDS011;11167;46.988;15.470;2023-06-05T11:51:32;1.62;;;1.52;;
22005;SDS011;11167;46.988;15.470;2023-06-05T11:53:43;1.55;;;1.45;;
22005;SDS011;11167;46.988;15.470;2023-06-05T11:55:46;1.47;;;1.37;;
22005;SDS011;11167;46.988;15.470;2023-06-05T11:57:54;1.70;;;1.60;;
22005;SDS011;11167;46.988;15.470;2023-06-05T11:59:58;1.30;;;1.20;;
22005;SDS011;11167;46.988;15.470;2023-06-05T12:02:01;1.55;;;1.40;;
22005;SDS011;11167;46.988;15.470;2023-06-05T12:04:04;1.62;;;1.50;;
22005;SDS011;11167;46.988;15.470;2023-06-05T12:06:06;1.75;;;1.60;;
22005;SDS011;11167;46.988;15.470;2023-06-05T12:08:27;1.62;;;1.52;;
22005;SDS011;11167;46.988;15.470;2023-06-05T12:10:33;1.72;;;1.50;;
22005;SDS011;11167;46.988;15.470;2023-06-05T12:12:53;1.67;;;1.57;;
22005;SDS011;11167;46.988;15.470;2023-06-05T12:14:56;1.72;;;1.60;;
22005;SDS011;11167;46.988;15.470;2023-06-05T12:16:57;1.80;;;1.67;;
22005;SDS011;11167;46.988;15.470;2023-06-05T12:18:58;1.85;;;1.67;;
22005;SDS011;11167;46.988;15.470;2023-06-05T12:21:02;1.60;;;1.50;;
22005;SDS011;11167;46.988;15.470;2023-06-05T12:23:03;1.60;;;1.50;;
22005;SDS011;11167;46.988;15.470;2023-06-05T12:25:17;1.60;;;1.50;;
22005;SDS011;11167;46.988;15.470;2023-06-05T12:27:29;1.90;;;1.70;;
22005;SDS011;11167;46.988;15.470;2023-06-05T12:29:26;1.60;;;1.50;;
22005;SDS011;11167;46.988;15.470;2023-06-05T12:31:37;2.10;;;1.90;;
22005;SDS011;11167;46.988;15.470;2023-06-05T12:33:49;1.80;;;1.70;;
22005;SDS011;11167;46.988;15.470;2023-06-05T12:36:05;1.87;;;1.75;;
22005;SDS011;11167;46.988;15.470;2023-06-05T12:38:08;2.15;;;1.80;;
22005;SDS011;11167;46.988;15.470;2023-06-05T12:40:10;1.85;;;1.75;;
22005;SDS011;11167;46.988;15.470;2023-06-05T12:42:13;1.70;;;1.60;;
22005;SDS011;11167;46.988;15.470;2023-06-05T12:44:14;2.00;;;1.80;;
22005;SDS011;11167;46.988;15.470;2023-06-05T12:46:15;1.60;;;1.50;;
22005;SDS011;11167;46.988;15.470;2023-06-05T12:48:16;1.80;;;1.70;;
22005;SDS011;11167;46.988;15.470;2023-06-05T12:50:19;2.62;;;1.80;;